Accueil
METAR-TAF:

METAR-TAF

Aéroports :

Black_Hills

Spearfish, Dakota du Sud, États-Unis

latitude: 44-29N, longitude: 103-47W, altitude: 1188 m

Observation

Le bulletin a été fait il y a 28 minutes, à 15:55 UTC
Vent 7 kt de ouest
Température 6°C
Humidité 61%
Pression 1023 hPa
Visibilité: 16.1 km
Ciel clair

METAR: KSPF 141555Z AUTO 28007KT 10SM CLR 06/M01 A3021 RMK AO2

Heure: 09:23 (16:23 UTC)


TAF: absent

Observations et prévisions météorologiques de plus de 4000 aéroports (messages METAR et TAF).

Les stations disponibles sont représentées par des disques jaunes et rouges sur la carte.

Passer la souris dessus pour voir le nom de la station.

Cliquer dessus pour voir les observations et prévisions météorologiques.

Pour changer de carte: cliquez sur les boutons verts avec une croix noire pour zoomer, sur le bouton vert avec un tiret pour effectuer un zoom arrière, ou sur les flèches vertes pour les cartes adjacentes.


METAR-TAF: